sensor_id;sensor_type;location;lat;lon;timestamp;temperature;humidity
6174;DHT22;3120;48.796;9.796;2023-04-28T00:01:18;8.80;1.00
6174;DHT22;3120;48.796;9.796;2023-04-28T00:03:44;9.10;1.00
6174;DHT22;3120;48.796;9.796;2023-04-28T00:06:09;8.90;1.00
6174;DHT22;3120;48.796;9.796;2023-04-28T00:08:36;8.90;1.00
6174;DHT22;3120;48.796;9.796;2023-04-28T00:11:02;9.70;1.00
6174;DHT22;3120;48.796;9.796;2023-04-28T00:13:28;8.80;1.00
6174;DHT22;3120;48.796;9.796;2023-04-28T00:15:54;8.90;1.00
6174;DHT22;3120;48.796;9.796;2023-04-28T00:18:20;8.90;1.00
6174;DHT22;3120;48.796;9.796;2023-04-28T00:20:45;8.90;1.00
6174;DHT22;3120;48.796;9.796;2023-04-28T00:23:11;8.90;1.00
6174;DHT22;3120;48.796;9.796;2023-04-28T00:25:37;9.00;1.00
6174;DHT22;3120;48.796;9.796;2023-04-28T00:28:02;10.00;1.00
6174;DHT22;3120;48.796;9.796;2023-04-28T00:30:31;9.00;1.00
6174;DHT22;3120;48.796;9.796;2023-04-28T00:32:57;9.00;1.00
6174;DHT22;3120;48.796;9.796;2023-04-28T00:35:22;9.10;1.00
6174;DHT22;3120;48.796;9.796;2023-04-28T00:37:48;9.10;1.00
6174;DHT22;3120;48.796;9.796;2023-04-28T00:40:14;9.10;1.00
6174;DHT22;3120;48.796;9.796;2023-04-28T00:42:39;9.10;1.00
6174;DHT22;3120;48.796;9.796;2023-04-28T00:45:05;9.10;1.00
6174;DHT22;3120;48.796;9.796;2023-04-28T00:47:33;9.10;1.00
6174;DHT22;3120;48.796;9.796;2023-04-28T00:50:00;9.10;1.00
6174;DHT22;3120;48.796;9.796;2023-04-28T00:52:27;9.20;1.00
6174;DHT22;3120;48.796;9.796;2023-04-28T00:54:53;9.20;1.00
6174;DHT22;3120;48.796;9.796;2023-04-28T00:57:19;9.30;1.00
6174;DHT22;3120;48.796;9.796;2023-04-28T00:59:44;9.30;1.00
6174;DHT22;3120;48.796;9.796;2023-04-28T01:02:10;9.30;1.00
6174;DHT22;3120;48.796;9.796;2023-04-28T01:04:44;9.40;1.00
6174;DHT22;3120;48.796;9.796;2023-04-28T01:07:11;9.30;1.00
6174;DHT22;3120;48.796;9.796;2023-04-28T01:09:37;9.30;1.00
6174;DHT22;3120;48.796;9.796;2023-04-28T01:12:02;9.40;99.90
6174;DHT22;3120;48.796;9.796;2023-04-28T01:14:28;9.40;99.90
6174;DHT22;3120;48.796;9.796;2023-04-28T01:16:54;9.40;99.90
6174;DHT22;3120;48.796;9.796;2023-04-28T01:19:21;9.40;99.90
6174;DHT22;3120;48.796;9.796;2023-04-28T01:21:47;9.40;99.90
6174;DHT22;3120;48.796;9.796;2023-04-28T01:24:13;9.40;1.00
6174;DHT22;3120;48.796;9.796;2023-04-28T01:26:38;9.50;1.00
6174;DHT22;3120;48.796;9.796;2023-04-28T01:29:04;9.50;1.00
6174;DHT22;3120;48.796;9.796;2023-04-28T01:31:30;9.90;1.00
6174;DHT22;3120;48.796;9.796;2023-04-28T01:33:56;9.50;1.00
6174;DHT22;3120;48.796;9.796;2023-04-28T01:36:21;9.50;1.00
6174;DHT22;3120;48.796;9.796;2023-04-28T01:38:48;9.50;1.00
6174;DHT22;3120;48.796;9.796;2023-04-28T01:41:14;9.50;1.00
6174;DHT22;3120;48.796;9.796;2023-04-28T01:43:40;9.70;1.00
6174;DHT22;3120;48.796;9.796;2023-04-28T01:46:08;9.60;1.00
6174;DHT22;3120;48.796;9.796;2023-04-28T01:48:34;9.50;1.00
6174;DHT22;3120;48.796;9.796;2023-04-28T01:50:59;9.50;1.00
6174;DHT22;3120;48.796;9.796;2023-04-28T01:53:25;9.60;1.00
6174;DHT22;3120;48.796;9.796;2023-04-28T01:55:50;9.90;1.00
6174;DHT22;3120;48.796;9.796;2023-04-28T01:58:16;9.60;1.00
6174;DHT22;3120;48.796;9.796;2023-04-28T02:00:42;9.60;1.00
6174;DHT22;3120;48.796;9.796;2023-04-28T02:03:07;10.20;1.00
6174;DHT22;3120;48.796;9.796;2023-04-28T02:05:33;9.60;1.00
6174;DHT22;3120;48.796;9.796;2023-04-28T02:07:58;9.90;1.00
6174;DHT22;3120;48.796;9.796;2023-04-28T02:10:24;9.70;1.00
6174;DHT22;3120;48.796;9.796;2023-04-28T02:12:49;9.70;1.00
6174;DHT22;3120;48.796;9.796;2023-04-28T02:15:15;9.70;1.00
6174;DHT22;3120;48.796;9.796;2023-04-28T02:17:41;9.80;1.00
6174;DHT22;3120;48.796;9.796;2023-04-28T02:20:07;9.80;1.00
6174;DHT22;3120;48.796;9.796;2023-04-28T02:22:33;9.80;1.00
6174;DHT22;3120;48.796;9.796;2023-04-28T02:24:58;10.70;29.40
6174;DHT22;3120;48.796;9.796;2023-04-28T02:27:24;11.00;18.10
6174;DHT22;3120;48.796;9.796;2023-04-28T02:29:50;10.90;99.90
6174;DHT22;3120;48.796;9.796;2023-04-28T02:32:17;9.60;99.90
6174;DHT22;3120;48.796;9.796;2023-04-28T02:34:42;9.50;99.90
6174;DHT22;3120;48.796;9.796;2023-04-28T02:37:08;9.50;99.90
6174;DHT22;3120;48.796;9.796;2023-04-28T02:39:34;10.10;99.90
6174;DHT22;3120;48.796;9.796;2023-04-28T02:41:59;10.60;99.90
6174;DHT22;3120;48.796;9.796;2023-04-28T02:44:25;9.40;99.90
6174;DHT22;3120;48.796;9.796;2023-04-28T02:46:51;9.40;99.90
6174;DHT22;3120;48.796;9.796;2023-04-28T02:49:16;10.70;99.90
6174;DHT22;3120;48.796;9.796;2023-04-28T02:51:42;9.40;99.90
6174;DHT22;3120;48.796;9.796;2023-04-28T02:54:08;10.30;99.90
6174;DHT22;3120;48.796;9.796;2023-04-28T02:56:34;10.00;99.90
6174;DHT22;3120;48.796;9.796;2023-04-28T02:58:59;9.40;99.90
6174;DHT22;3120;48.796;9.796;2023-04-28T03:01:25;9.50;99.90
6174;DHT22;3120;48.796;9.796;2023-04-28T03:03:51;9.50;99.90
6174;DHT22;3120;48.796;9.796;2023-04-28T03:06:16;9.50;99.90
6174;DHT22;3120;48.796;9.796;2023-04-28T03:08:42;10.60;99.90
6174;DHT22;3120;48.796;9.796;2023-04-28T03:11:07;10.60;99.90
6174;DHT22;3120;48.796;9.796;2023-04-28T03:13:33;9.50;99.90
6174;DHT22;3120;48.796;9.796;2023-04-28T03:16:00;11.20;99.90
6174;DHT22;3120;48.796;9.796;2023-04-28T03:18:26;11.00;99.90
6174;DHT22;3120;48.796;9.796;2023-04-28T03:20:51;11.10;99.90
6174;DHT22;3120;48.796;9.796;2023-04-28T03:23:17;11.40;99.90
6174;DHT22;3120;48.796;9.796;2023-04-28T03:25:42;11.30;99.90
6174;DHT22;3120;48.796;9.796;2023-04-28T03:28:08;10.10;99.90
6174;DHT22;3120;48.796;9.796;2023-04-28T03:30:35;10.90;99.90
6174;DHT22;3120;48.796;9.796;2023-04-28T03:33:00;9.80;99.90
6174;DHT22;3120;48.796;9.796;2023-04-28T03:35:26;11.90;99.90
6174;DHT22;3120;48.796;9.796;2023-04-28T03:37:52;9.80;99.90
6174;DHT22;3120;48.796;9.796;2023-04-28T03:40:17;9.90;99.90
6174;DHT22;3120;48.796;9.796;2023-04-28T03:42:43;9.90;99.90
6174;DHT22;3120;48.796;9.796;2023-04-28T03:45:09;10.70;99.90
6174;DHT22;3120;48.796;9.796;2023-04-28T03:47:35;9.90;99.90
6174;DHT22;3120;48.796;9.796;2023-04-28T03:50:01;9.90;99.90
6174;DHT22;3120;48.796;9.796;2023-04-28T03:52:27;10.30;99.90
6174;DHT22;3120;48.796;9.796;2023-04-28T03:54:52;10.40;99.90
6174;DHT22;3120;48.796;9.796;2023-04-28T03:57:18;9.90;99.90
6174;DHT22;3120;48.796;9.796;2023-04-28T03:59:43;9.90;99.90
6174;DHT22;3120;48.796;9.796;2023-04-28T04:02:09;9.90;99.90
6174;DHT22;3120;48.796;9.796;2023-04-28T04:04:35;9.90;99.90
6174;DHT22;3120;48.796;9.796;2023-04-28T04:07:01;9.90;99.90
6174;DHT22;3120;48.796;9.796;2023-04-28T04:09:26;11.30;99.90
6174;DHT22;3120;48.796;9.796;2023-04-28T04:11:52;10.00;99.90
6174;DHT22;3120;48.796;9.796;2023-04-28T04:14:18;10.00;99.90
6174;DHT22;3120;48.796;9.796;2023-04-28T04:16:45;10.00;99.90
6174;DHT22;3120;48.796;9.796;2023-04-28T04:19:10;11.30;99.90
6174;DHT22;3120;48.796;9.796;2023-04-28T04:21:36;11.70;99.90
6174;DHT22;3120;48.796;9.796;2023-04-28T04:24:01;11.10;99.90
6174;DHT22;3120;48.796;9.796;2023-04-28T04:26:27;10.10;99.90
6174;DHT22;3120;48.796;9.796;2023-04-28T04:28:52;12.10;99.90
6174;DHT22;3120;48.796;9.796;2023-04-28T04:31:18;11.60;99.90
6174;DHT22;3120;48.796;9.796;2023-04-28T04:33:44;12.40;99.90
6174;DHT22;3120;48.796;9.796;2023-04-28T04:36:10;10.10;99.90
6174;DHT22;3120;48.796;9.796;2023-04-28T04:38:35;12.00;99.90
6174;DHT22;3120;48.796;9.796;2023-04-28T04:41:01;10.80;99.90
6174;DHT22;3120;48.796;9.796;2023-04-28T04:43:26;12.10;99.90
6174;DHT22;3120;48.796;9.796;2023-04-28T04:45:52;11.80;99.90
6174;DHT22;3120;48.796;9.796;2023-04-28T04:48:18;12.40;99.90
6174;DHT22;3120;48.796;9.796;2023-04-28T04:50:44;11.40;99.90
6174;DHT22;3120;48.796;9.796;2023-04-28T04:53:09;10.40;99.90
6174;DHT22;3120;48.796;9.796;2023-04-28T04:55:35;11.50;99.90
6174;DHT22;3120;48.796;9.796;2023-04-28T04:58:00;10.30;99.90
6174;DHT22;3120;48.796;9.796;2023-04-28T05:00:26;12.00;99.90
6174;DHT22;3120;48.796;9.796;2023-04-28T05:02:52;10.40;99.90
6174;DHT22;3120;48.796;9.796;2023-04-28T05:05:17;12.00;99.90
6174;DHT22;3120;48.796;9.796;2023-04-28T05:07:43;10.50;99.90
6174;DHT22;3120;48.796;9.796;2023-04-28T05:10:09;12.10;99.90
6174;DHT22;3120;48.796;9.796;2023-04-28T05:12:39;10.50;99.90
6174;DHT22;3120;48.796;9.796;2023-04-28T05:15:05;10.50;99.90
6174;DHT22;3120;48.796;9.796;2023-04-28T05:17:32;10.60;99.90
6174;DHT22;3120;48.796;9.796;2023-04-28T05:19:58;10.60;99.90
6174;DHT22;3120;48.796;9.796;2023-04-28T05:22:24;10.60;99.90
6174;DHT22;3120;48.796;9.796;2023-04-28T05:24:50;10.70;99.90
6174;DHT22;3120;48.796;9.796;2023-04-28T05:27:17;12.30;99.90
6174;DHT22;3120;48.796;9.796;2023-04-28T05:29:43;12.20;99.90
6174;DHT22;3120;48.796;9.796;2023-04-28T05:32:08;11.60;99.90
6174;DHT22;3120;48.796;9.796;2023-04-28T05:34:37;10.60;99.90
6174;DHT22;3120;48.796;9.796;2023-04-28T05:37:02;11.50;99.90
6174;DHT22;3120;48.796;9.796;2023-04-28T05:39:28;10.80;99.90
6174;DHT22;3120;48.796;9.796;2023-04-28T05:41:53;12.30;99.90
6174;DHT22;3120;48.796;9.796;2023-04-28T05:44:19;10.90;99.90
6174;DHT22;3120;48.796;9.796;2023-04-28T05:46:45;13.20;99.90
6174;DHT22;3120;48.796;9.796;2023-04-28T05:49:10;12.10;99.90
6174;DHT22;3120;48.796;9.796;2023-04-28T05:51:36;12.70;99.90
6174;DHT22;3120;48.796;9.796;2023-04-28T05:54:03;11.20;99.90
6174;DHT22;3120;48.796;9.796;2023-04-28T05:56:28;11.30;99.90
6174;DHT22;3120;48.796;9.796;2023-04-28T05:58:54;12.30;99.90
6174;DHT22;3120;48.796;9.796;2023-04-28T06:01:21;11.90;99.90
6174;DHT22;3120;48.796;9.796;2023-04-28T06:03:47;13.60;99.90
6174;DHT22;3120;48.796;9.796;2023-04-28T06:06:14;11.40;99.90
6174;DHT22;3120;48.796;9.796;2023-04-28T06:08:39;11.30;99.90
6174;DHT22;3120;48.796;9.796;2023-04-28T06:11:05;11.30;99.90
6174;DHT22;3120;48.796;9.796;2023-04-28T06:13:31;11.40;99.90
6174;DHT22;3120;48.796;9.796;2023-04-28T06:15:57;12.60;99.90
6174;DHT22;3120;48.796;9.796;2023-04-28T06:18:23;12.40;99.90
6174;DHT22;3120;48.796;9.796;2023-04-28T06:20:49;9.90;99.90
6174;DHT22;3120;48.796;9.796;2023-04-28T06:23:15;12.20;99.90
6174;DHT22;3120;48.796;9.796;2023-04-28T06:25:40;13.70;99.90
6174;DHT22;3120;48.796;9.796;2023-04-28T06:28:06;11.40;99.90
6174;DHT22;3120;48.796;9.796;2023-04-28T06:30:32;12.90;99.90
6174;DHT22;3120;48.796;9.796;2023-04-28T06:32:59;12.70;99.90
6174;DHT22;3120;48.796;9.796;2023-04-28T06:35:24;11.60;99.90
6174;DHT22;3120;48.796;9.796;2023-04-28T06:37:50;11.60;99.90
6174;DHT22;3120;48.796;9.796;2023-04-28T06:40:16;11.60;99.90
6174;DHT22;3120;48.796;9.796;2023-04-28T06:42:43;11.70;99.90
6174;DHT22;3120;48.796;9.796;2023-04-28T06:45:09;13.90;99.90
6174;DHT22;3120;48.796;9.796;2023-04-28T06:47:35;11.60;99.90
6174;DHT22;3120;48.796;9.796;2023-04-28T06:50:02;13.50;99.90
6174;DHT22;3120;48.796;9.796;2023-04-28T06:52:27;11.60;99.90
6174;DHT22;3120;48.796;9.796;2023-04-28T06:54:54;11.70;99.90
6174;DHT22;3120;48.796;9.796;2023-04-28T06:57:20;11.70;99.90
6174;DHT22;3120;48.796;9.796;2023-04-28T06:59:46;12.90;99.90
6174;DHT22;3120;48.796;9.796;2023-04-28T07:02:12;14.50;99.90
6174;DHT22;3120;48.796;9.796;2023-04-28T07:04:37;13.90;99.90
6174;DHT22;3120;48.796;9.796;2023-04-28T07:07:04;12.50;99.90
6174;DHT22;3120;48.796;9.796;2023-04-28T07:09:34;14.50;99.90
6174;DHT22;3120;48.796;9.796;2023-04-28T07:12:00;12.90;99.90
6174;DHT22;3120;48.796;9.796;2023-04-28T07:14:25;11.80;99.90
6174;DHT22;3120;48.796;9.796;2023-04-28T07:16:51;13.70;99.90
6174;DHT22;3120;48.796;9.796;2023-04-28T07:19:17;11.90;99.90
6174;DHT22;3120;48.796;9.796;2023-04-28T07:21:42;13.80;99.90
6174;DHT22;3120;48.796;9.796;2023-04-28T07:24:09;13.00;99.90
6174;DHT22;3120;48.796;9.796;2023-04-28T07:26:34;13.90;99.90
6174;DHT22;3120;48.796;9.796;2023-04-28T07:29:00;12.00;99.90
6174;DHT22;3120;48.796;9.796;2023-04-28T07:31:26;12.70;99.90
6174;DHT22;3120;48.796;9.796;2023-04-28T07:33:51;13.20;99.90
6174;DHT22;3120;48.796;9.796;2023-04-28T07:36:17;12.00;99.90
6174;DHT22;3120;48.796;9.796;2023-04-28T07:38:43;12.00;99.90
6174;DHT22;3120;48.796;9.796;2023-04-28T07:41:08;13.80;99.90
6174;DHT22;3120;48.796;9.796;2023-04-28T07:43:34;13.70;99.90
6174;DHT22;3120;48.796;9.796;2023-04-28T07:46:00;13.30;99.90
6174;DHT22;3120;48.796;9.796;2023-04-28T07:48:25;12.70;99.90
6174;DHT22;3120;48.796;9.796;2023-04-28T07:50:52;11.80;99.90
6174;DHT22;3120;48.796;9.796;2023-04-28T07:53:18;14.00;99.90
6174;DHT22;3120;48.796;9.796;2023-04-28T07:55:43;13.40;99.90
6174;DHT22;3120;48.796;9.796;2023-04-28T07:58:10;11.90;99.90
6174;DHT22;3120;48.796;9.796;2023-04-28T08:00:36;11.90;99.90
6174;DHT22;3120;48.796;9.796;2023-04-28T08:03:02;12.00;99.90
6174;DHT22;3120;48.796;9.796;2023-04-28T08:05:28;11.90;99.90
6174;DHT22;3120;48.796;9.796;2023-04-28T08:07:53;12.00;99.90
6174;DHT22;3120;48.796;9.796;2023-04-28T08:10:19;12.30;99.90
6174;DHT22;3120;48.796;9.796;2023-04-28T08:12:45;12.10;99.90
6174;DHT22;3120;48.796;9.796;2023-04-28T08:15:11;13.20;99.90
6174;DHT22;3120;48.796;9.796;2023-04-28T08:17:36;12.20;99.90
6174;DHT22;3120;48.796;9.796;2023-04-28T08:20:02;12.20;99.90
6174;DHT22;3120;48.796;9.796;2023-04-28T08:22:28;12.20;99.90
6174;DHT22;3120;48.796;9.796;2023-04-28T08:24:54;12.20;99.90
6174;DHT22;3120;48.796;9.796;2023-04-28T08:27:19;12.00;99.90
6174;DHT22;3120;48.796;9.796;2023-04-28T08:29:46;12.90;99.90
6174;DHT22;3120;48.796;9.796;2023-04-28T08:32:11;12.90;99.90
6174;DHT22;3120;48.796;9.796;2023-04-28T08:34:37;14.60;99.90
6174;DHT22;3120;48.796;9.796;2023-04-28T08:37:03;12.50;99.90
6174;DHT22;3120;48.796;9.796;2023-04-28T08:39:28;13.30;99.90
6174;DHT22;3120;48.796;9.796;2023-04-28T08:41:55;12.40;99.90
6174;DHT22;3120;48.796;9.796;2023-04-28T08:44:21;12.30;99.90
6174;DHT22;3120;48.796;9.796;2023-04-28T08:46:48;12.30;99.90
6174;DHT22;3120;48.796;9.796;2023-04-28T08:49:16;12.20;99.90
6174;DHT22;3120;48.796;9.796;2023-04-28T08:51:49;12.20;99.90
6174;DHT22;3120;48.796;9.796;2023-04-28T08:54:15;12.20;99.90
6174;DHT22;3120;48.796;9.796;2023-04-28T08:56:41;12.20;99.90
6174;DHT22;3120;48.796;9.796;2023-04-28T08:59:11;12.30;99.90
6174;DHT22;3120;48.796;9.796;2023-04-28T09:01:37;12.40;99.90
6174;DHT22;3120;48.796;9.796;2023-04-28T09:04:03;12.20;99.90
6174;DHT22;3120;48.796;9.796;2023-04-28T09:06:34;12.30;99.90
6174;DHT22;3120;48.796;9.796;2023-04-28T09:09:22;12.30;99.90
6174;DHT22;3120;48.796;9.796;2023-04-28T09:14:15;12.40;99.90
6174;DHT22;3120;48.796;9.796;2023-04-28T09:16:41;12.50;99.90
6174;DHT22;3120;48.796;9.796;2023-04-28T09:19:06;12.70;99.90
6174;DHT22;3120;48.796;9.796;2023-04-28T09:21:32;12.80;99.90
6174;DHT22;3120;48.796;9.796;2023-04-28T09:23:57;14.50;99.90
6174;DHT22;3120;48.796;9.796;2023-04-28T09:26:23;13.00;99.90
6174;DHT22;3120;48.796;9.796;2023-04-28T09:28:49;13.20;99.90
6174;DHT22;3120;48.796;9.796;2023-04-28T09:31:22;13.30;99.90
6174;DHT22;3120;48.796;9.796;2023-04-28T09:33:56;13.20;99.90
6174;DHT22;3120;48.796;9.796;2023-04-28T09:36:27;13.20;99.90
6174;DHT22;3120;48.796;9.796;2023-04-28T09:38:56;13.10;99.90
6174;DHT22;3120;48.796;9.796;2023-04-28T09:41:43;14.80;99.90
6174;DHT22;3120;48.796;9.796;2023-04-28T09:44:17;13.00;99.90
6174;DHT22;3120;48.796;9.796;2023-04-28T09:46:44;13.10;99.90
6174;DHT22;3120;48.796;9.796;2023-04-28T09:49:10;13.10;99.90
6174;DHT22;3120;48.796;9.796;2023-04-28T09:51:36;13.20;99.90
6174;DHT22;3120;48.796;9.796;2023-04-28T09:54:02;13.20;99.90
6174;DHT22;3120;48.796;9.796;2023-04-28T09:56:29;13.20;99.90
6174;DHT22;3120;48.796;9.796;2023-04-28T09:58:59;13.60;99.90
6174;DHT22;3120;48.796;9.796;2023-04-28T10:01:35;15.00;99.90
6174;DHT22;3120;48.796;9.796;2023-04-28T10:04:03;13.50;99.90
6174;DHT22;3120;48.796;9.796;2023-04-28T10:06:29;13.80;99.90
6174;DHT22;3120;48.796;9.796;2023-04-28T10:08:55;13.90;99.90
6174;DHT22;3120;48.796;9.796;2023-04-28T10:11:22;15.10;99.90
6174;DHT22;3120;48.796;9.796;2023-04-28T10:13:50;16.50;99.90
6174;DHT22;3120;48.796;9.796;2023-04-28T10:16:16;16.10;99.90
6174;DHT22;3120;48.796;9.796;2023-04-28T10:18:44;16.10;99.90
6174;DHT22;3120;48.796;9.796;2023-04-28T10:21:11;14.70;99.90
6174;DHT22;3120;48.796;9.796;2023-04-28T10:29:25;14.70;99.90
6174;DHT22;3120;48.796;9.796;2023-04-28T10:32:14;16.60;99.90
6174;DHT22;3120;48.796;9.796;2023-04-28T10:34:39;14.60;99.90
6174;DHT22;3120;48.796;9.796;2023-04-28T10:37:05;16.30;99.90
6174;DHT22;3120;48.796;9.796;2023-04-28T10:39:31;15.90;99.90
6174;DHT22;3120;48.796;9.796;2023-04-28T10:41:56;14.80;99.90
6174;DHT22;3120;48.796;9.796;2023-04-28T10:47:04;14.90;99.90
6174;DHT22;3120;48.796;9.796;2023-04-28T11:00:45;14.40;99.90
6174;DHT22;3120;48.796;9.796;2023-04-28T11:06:26;14.50;99.90
6174;DHT22;3120;48.796;9.796;2023-04-28T11:09:00;14.50;99.90
6174;DHT22;3120;48.796;9.796;2023-04-28T11:11:30;14.60;99.90
6174;DHT22;3120;48.796;9.796;2023-04-28T11:16:54;14.50;99.90
6174;DHT22;3120;48.796;9.796;2023-04-28T11:19:22;14.50;99.90
6174;DHT22;3120;48.796;9.796;2023-04-28T11:21:49;14.60;99.90
6174;DHT22;3120;48.796;9.796;2023-04-28T11:24:15;15.90;99.90
6174;DHT22;3120;48.796;9.796;2023-04-28T11:26:42;15.30;99.90
6174;DHT22;3120;48.796;9.796;2023-04-28T11:29:08;15.60;99.90
6174;DHT22;3120;48.796;9.796;2023-04-28T11:31:34;16.60;99.90
6174;DHT22;3120;48.796;9.796;2023-04-28T11:34:03;15.90;99.90
6174;DHT22;3120;48.796;9.796;2023-04-28T11:36:37;15.90;99.90
6174;DHT22;3120;48.796;9.796;2023-04-28T11:39:11;15.90;99.90
6174;DHT22;3120;48.796;9.796;2023-04-28T11:41:42;15.80;99.90
6174;DHT22;3120;48.796;9.796;2023-04-28T11:46:44;16.10;99.90
6174;DHT22;3120;48.796;9.796;2023-04-28T11:49:11;16.10;99.90
6174;DHT22;3120;48.796;9.796;2023-04-28T11:51:39;16.30;99.90
6174;DHT22;3120;48.796;9.796;2023-04-28T11:54:06;15.90;99.90
6174;DHT22;3120;48.796;9.796;2023-04-28T11:56:40;16.70;99.90
6174;DHT22;3120;48.796;9.796;2023-04-28T11:59:10;15.90;99.90
6174;DHT22;3120;48.796;9.796;2023-04-28T12:01:51;16.50;99.90
6174;DHT22;3120;48.796;9.796;2023-04-28T12:04:41;16.30;99.90
6174;DHT22;3120;48.796;9.796;2023-04-28T12:07:17;16.60;99.90
6174;DHT22;3120;48.796;9.796;2023-04-28T12:09:46;17.00;99.90
6174;DHT22;3120;48.796;9.796;2023-04-28T12:12:13;17.20;99.90
6174;DHT22;3120;48.796;9.796;2023-04-28T12:14:58;17.80;99.90
6174;DHT22;3120;48.796;9.796;2023-04-28T12:17:31;17.10;99.90
6174;DHT22;3120;48.796;9.796;2023-04-28T12:19:59;17.80;99.90
6174;DHT22;3120;48.796;9.796;2023-04-28T12:22:25;17.00;99.90
6174;DHT22;3120;48.796;9.796;2023-04-28T12:25:10;16.80;99.90
6174;DHT22;3120;48.796;9.796;2023-04-28T12:27:37;17.00;99.90
6174;DHT22;3120;48.796;9.796;2023-04-28T12:30:25;18.10;99.90
6174;DHT22;3120;48.796;9.796;2023-04-28T12:32:51;18.20;99.90
6174;DHT22;3120;48.796;9.796;2023-04-28T12:35:23;18.90;99.90
6174;DHT22;3120;48.796;9.796;2023-04-28T12:37:50;17.30;99.90
6174;DHT22;3120;48.796;9.796;2023-04-28T12:40:16;17.10;99.90
6174;DHT22;3120;48.796;9.796;2023-04-28T12:42:41;16.70;99.90
6174;DHT22;3120;48.796;9.796;2023-04-28T12:45:07;16.50;99.90
6174;DHT22;3120;48.796;9.796;2023-04-28T12:47:34;16.30;99.90
6174;DHT22;3120;48.796;9.796;2023-04-28T12:50:00;16.70;99.90
6174;DHT22;3120;48.796;9.796;2023-04-28T12:52:25;15.80;99.90
6174;DHT22;3120;48.796;9.796;2023-04-28T12:54:51;15.60;99.90
6174;DHT22;3120;48.796;9.796;2023-04-28T12:57:18;16.60;99.90
6174;DHT22;3120;48.796;9.796;2023-04-28T12:59:44;15.60;99.90
6174;DHT22;3120;48.796;9.796;2023-04-28T13:02:11;16.40;99.90
6174;DHT22;3120;48.796;9.796;2023-04-28T13:04:38;16.40;99.90
6174;DHT22;3120;48.796;9.796;2023-04-28T13:07:03;17.70;99.90
6174;DHT22;3120;48.796;9.796;2023-04-28T13:09:31;15.40;99.90
6174;DHT22;3120;48.796;9.796;2023-04-28T13:11:57;15.20;99.90
6174;DHT22;3120;48.796;9.796;2023-04-28T13:14:25;16.20;99.90
6174;DHT22;3120;48.796;9.796;2023-04-28T13:16:51;14.80;99.90
6174;DHT22;3120;48.796;9.796;2023-04-28T13:19:17;16.40;99.90
6174;DHT22;3120;48.796;9.796;2023-04-28T13:21:43;15.40;99.90
6174;DHT22;3120;48.796;9.796;2023-04-28T13:24:11;16.50;99.90
6174;DHT22;3120;48.796;9.796;2023-04-28T13:26:38;16.10;99.90
6174;DHT22;3120;48.796;9.796;2023-04-28T13:29:04;15.30;99.90
6174;DHT22;3120;48.796;9.796;2023-04-28T13:31:32;14.50;99.90
6174;DHT22;3120;48.796;9.796;2023-04-28T13:33:58;15.30;99.90
6174;DHT22;3120;48.796;9.796;2023-04-28T13:36:29;15.10;99.90
6174;DHT22;3120;48.796;9.796;2023-04-28T13:38:55;14.60;99.90
6174;DHT22;3120;48.796;9.796;2023-04-28T13:41:21;14.70;99.90
6174;DHT22;3120;48.796;9.796;2023-04-28T13:43:47;15.70;99.90
6174;DHT22;3120;48.796;9.796;2023-04-28T13:46:12;16.50;99.90
6174;DHT22;3120;48.796;9.796;2023-04-28T13:48:39;15.30;99.90
6174;DHT22;3120;48.796;9.796;2023-04-28T13:51:05;17.20;99.90
6174;DHT22;3120;48.796;9.796;2023-04-28T13:53:33;15.50;99.90
6174;DHT22;3120;48.796;9.796;2023-04-28T13:58:35;15.60;99.90
6174;DHT22;3120;48.796;9.796;2023-04-28T14:01:01;15.70;99.90
6174;DHT22;3120;48.796;9.796;2023-04-28T14:03:28;15.50;99.90
6174;DHT22;3120;48.796;9.796;2023-04-28T14:05:55;15.60;99.90
6174;DHT22;3120;48.796;9.796;2023-04-28T14:08:23;15.40;99.90
6174;DHT22;3120;48.796;9.796;2023-04-28T14:10:49;15.40;99.90
6174;DHT22;3120;48.796;9.796;2023-04-28T14:13:16;15.30;99.90
6174;DHT22;3120;48.796;9.796;2023-04-28T14:15:42;16.60;99.90
6174;DHT22;3120;48.796;9.796;2023-04-28T14:18:08;15.20;99.90
6174;DHT22;3120;48.796;9.796;2023-04-28T14:20:34;15.70;99.90
6174;DHT22;3120;48.796;9.796;2023-04-28T14:23:02;15.30;99.90
6174;DHT22;3120;48.796;9.796;2023-04-28T14:25:28;15.30;99.90
6174;DHT22;3120;48.796;9.796;2023-04-28T14:27:53;15.50;99.90
6174;DHT22;3120;48.796;9.796;2023-04-28T14:30:20;15.50;99.90
6174;DHT22;3120;48.796;9.796;2023-04-28T14:32:46;15.40;99.90
6174;DHT22;3120;48.796;9.796;2023-04-28T14:35:12;15.50;99.90
6174;DHT22;3120;48.796;9.796;2023-04-28T14:37:42;16.30;99.90
6174;DHT22;3120;48.796;9.796;2023-04-28T14:40:08;15.60;99.90
6174;DHT22;3120;48.796;9.796;2023-04-28T14:42:34;15.90;99.90
6174;DHT22;3120;48.796;9.796;2023-04-28T14:45:06;16.00;99.90
6174;DHT22;3120;48.796;9.796;2023-04-28T14:47:33;15.80;99.90
6174;DHT22;3120;48.796;9.796;2023-04-28T14:49:59;15.90;99.90
6174;DHT22;3120;48.796;9.796;2023-04-28T14:52:25;16.70;99.90
6174;DHT22;3120;48.796;9.796;2023-04-28T14:54:54;15.50;99.90
6174;DHT22;3120;48.796;9.796;2023-04-28T14:57:20;15.30;99.90
6174;DHT22;3120;48.796;9.796;2023-04-28T14:59:46;15.10;99.90
6174;DHT22;3120;48.796;9.796;2023-04-28T15:02:11;14.90;99.90
6174;DHT22;3120;48.796;9.796;2023-04-28T15:04:40;14.90;99.90
6174;DHT22;3120;48.796;9.796;2023-04-28T15:07:07;14.90;99.90
6174;DHT22;3120;48.796;9.796;2023-04-28T15:09:35;14.90;99.90
6174;DHT22;3120;48.796;9.796;2023-04-28T15:12:01;15.00;99.90
6174;DHT22;3120;48.796;9.796;2023-04-28T15:14:28;15.00;99.90
6174;DHT22;3120;48.796;9.796;2023-04-28T15:16:54;15.00;99.90
6174;DHT22;3120;48.796;9.796;2023-04-28T15:19:19;15.00;99.90
6174;DHT22;3120;48.796;9.796;2023-04-28T15:21:45;15.10;99.90
6174;DHT22;3120;48.796;9.796;2023-04-28T15:24:11;16.20;99.90
6174;DHT22;3120;48.796;9.796;2023-04-28T15:26:37;15.20;99.90
6174;DHT22;3120;48.796;9.796;2023-04-28T15:29:03;15.20;99.90
6174;DHT22;3120;48.796;9.796;2023-04-28T15:31:28;15.40;99.90
6174;DHT22;3120;48.796;9.796;2023-04-28T15:33:54;15.80;99.90
6174;DHT22;3120;48.796;9.796;2023-04-28T15:36:21;15.30;99.90
6174;DHT22;3120;48.796;9.796;2023-04-28T15:38:47;15.20;99.90
6174;DHT22;3120;48.796;9.796;2023-04-28T15:41:13;15.20;99.90
6174;DHT22;3120;48.796;9.796;2023-04-28T15:43:39;15.10;99.90
6174;DHT22;3120;48.796;9.796;2023-04-28T15:46:05;16.20;99.90
6174;DHT22;3120;48.796;9.796;2023-04-28T15:48:35;15.10;99.90
6174;DHT22;3120;48.796;9.796;2023-04-28T15:51:06;15.30;99.90
6174;DHT22;3120;48.796;9.796;2023-04-28T15:53:32;15.40;99.90
6174;DHT22;3120;48.796;9.796;2023-04-28T15:55:58;15.50;99.90
6174;DHT22;3120;48.796;9.796;2023-04-28T15:58:24;16.50;99.90
6174;DHT22;3120;48.796;9.796;2023-04-28T16:00:49;15.50;99.90
6174;DHT22;3120;48.796;9.796;2023-04-28T16:03:16;16.10;99.90
6174;DHT22;3120;48.796;9.796;2023-04-28T16:05:41;15.40;99.90
6174;DHT22;3120;48.796;9.796;2023-04-28T16:08:08;15.70;99.90
6174;DHT22;3120;48.796;9.796;2023-04-28T16:10:34;15.30;99.90
6174;DHT22;3120;48.796;9.796;2023-04-28T16:12:59;15.10;99.90
6174;DHT22;3120;48.796;9.796;2023-04-28T16:15:25;15.10;99.90
6174;DHT22;3120;48.796;9.796;2023-04-28T16:17:51;15.20;99.90
6174;DHT22;3120;48.796;9.796;2023-04-28T16:20:17;15.10;99.90
6174;DHT22;3120;48.796;9.796;2023-04-28T16:22:43;15.80;99.90
6174;DHT22;3120;48.796;9.796;2023-04-28T16:25:09;15.00;99.90
6174;DHT22;3120;48.796;9.796;2023-04-28T16:27:39;15.10;99.90
6174;DHT22;3120;48.796;9.796;2023-04-28T16:30:06;15.10;99.90
6174;DHT22;3120;48.796;9.796;2023-04-28T16:32:33;15.00;99.90
6174;DHT22;3120;48.796;9.796;2023-04-28T16:35:00;15.00;99.90
6174;DHT22;3120;48.796;9.796;2023-04-28T16:37:26;15.00;99.90